You are not logged in, Click here to log in
機場資訊:PHNL Welcome to Taiwan Airways 台灣虛擬航空
ICAO: PHNL Country: 美國夏威夷檀香山
Latitude: 21.3245 Longitude: -157.925
Total Arrivals: 14 Total Departures: 14
Latest Arrival: FS07 (NSTU-PHNL)ALAN. LIU Latest Departure: JL781 (PHNL-RJAA)CHUANYI. Lin
Scenery:
METAR : PHNL 151653Z 34004KT 10SM FEW025 FEW050 24/21 A2998

檀香山國際機場HNL

You are accessing this site from IP address 18.205.96.39. Virtual Airline. CMS by phpVMS.Website designed by Zumeweb and edited by Theo Bearman.
There is 0 User(s) Online: | and 10 Guest(s) Online.
All information on this site is for fight simulation purposes only. This site is for flight logging for pilots of Virtual Airline&模擬飛行論壇 FlySim only.